Time;durP1;ratioP1;P1;durP2;ratioP2;P2;SDS_P1;SDS_P2;PMS_P1;PMS_P2;Temp;Humidity;BMP_temperature;BMP_pressure;BME280_temperature;BME280_humidity;BME280_pressure;Samples;Min_cycle;Max_cycle;Signal;HPM_P1;HPM_P2
2023/03/01 00:01:46;;;;;;;27.48;20.75;;;0.10;99.90;;;;;;5063777;28;20043;-43
2023/03/01 00:04:12;;;;;;;32.20;22.02;;;0.00;99.90;;;;;;5050973;28;20087;-40
2023/03/01 00:06:38;;;;;;;27.02;20.23;;;0.00;99.90;;;;;;5044477;28;20044;-43
2023/03/01 00:09:03;;;;;;;29.17;21.00;;;-0.10;99.90;;;;;;5053462;28;20437;-45
2023/03/01 00:11:31;;;;;;;27.40;20.27;;;-0.10;99.90;;;;;;5068582;28;20068;-46
2023/03/01 00:14:00;;;;;;;25.85;20.08;;;-0.10;99.90;;;;;;5053889;28;20044;-36
2023/03/01 00:16:35;;;;;;;24.75;18.40;;;-0.20;99.90;;;;;;5068177;28;20044;-46
2023/03/01 00:19:01;;;;;;;33.60;23.95;;;-0.20;99.90;;;;;;5055910;28;20041;-40
2023/03/01 00:21:27;;;;;;;28.08;21.08;;;-0.30;99.90;;;;;;5068065;28;20169;-41
2023/03/01 00:23:54;;;;;;;29.52;20.92;;;-0.40;99.90;;;;;;5041273;28;20789;-43
2023/03/01 00:26:24;;;;;;;29.92;21.08;;;-0.40;99.90;;;;;;5055095;28;20048;-43
2023/03/01 00:28:50;;;;;;;28.35;21.58;;;-0.40;99.90;;;;;;5062031;28;20040;-39
2023/03/01 00:31:19;;;;;;;29.48;23.20;;;-0.40;99.90;;;;;;5059042;28;20075;-42
2023/03/01 00:33:45;;;;;;;31.35;22.63;;;-0.50;99.90;;;;;;5041853;28;20078;-45
2023/03/01 00:36:14;;;;;;;30.58;22.48;;;-0.50;99.90;;;;;;5054871;28;20519;-42
2023/03/01 00:38:42;;;;;;;36.17;23.75;;;-0.50;99.90;;;;;;5036182;28;20612;-41
2023/03/01 00:41:11;;;;;;;31.83;22.20;;;-0.50;99.90;;;;;;5054352;28;20068;-44
2023/03/01 00:43:37;;;;;;;31.33;22.60;;;-0.60;99.90;;;;;;5073882;28;20048;-41
2023/03/01 00:46:05;;;;;;;33.92;24.42;;;-0.50;99.90;;;;;;5074338;28;20135;-47
2023/03/01 00:48:31;;;;;;;34.03;24.50;;;-0.60;99.90;;;;;;5075025;28;20058;-42
2023/03/01 00:50:57;;;;;;;40.95;25.98;;;-0.60;99.90;;;;;;5058324;28;20048;-45
2023/03/01 00:53:22;;;;;;;31.17;23.98;;;-0.60;99.90;;;;;;5053850;28;20106;-38
2023/03/01 00:55:48;;;;;;;34.53;25.45;;;-0.70;99.90;;;;;;5054168;28;20647;-40
2023/03/01 00:58:14;;;;;;;30.48;22.77;;;-0.70;99.90;;;;;;5054681;28;20457;-44
2023/03/01 01:00:39;;;;;;;22.08;17.85;;;-0.80;99.90;;;;;;5070602;28;20048;-43
2023/03/01 01:03:05;;;;;;;20.75;17.23;;;-0.80;99.90;;;;;;5065312;28;20051;-37
2023/03/01 01:05:33;;;;;;;24.50;19.20;;;-0.80;99.90;;;;;;5056110;28;20500;-38
2023/03/01 01:07:59;;;;;;;27.88;20.17;;;-0.80;99.90;;;;;;5066423;28;20059;-45
2023/03/01 01:10:25;;;;;;;25.10;20.88;;;-0.90;99.90;;;;;;5067107;28;20047;-39
2023/03/01 01:12:50;;;;;;;23.67;17.85;;;-1.00;99.90;;;;;;5062856;28;20044;-35
2023/03/01 01:15:16;;;;;;;24.67;19.15;;;-1.00;99.90;;;;;;5074155;28;20052;-42
2023/03/01 01:17:42;;;;;;;38.05;17.10;;;-1.10;99.90;;;;;;5074678;28;20059;-47
2023/03/01 01:20:08;;;;;;;199.95;23.50;;;-1.20;99.90;;;;;;5073845;28;20205;-45
2023/03/01 01:22:34;;;;;;;217.32;25.42;;;-1.30;99.90;;;;;;5074814;28;20044;-38
2023/03/01 01:24:59;;;;;;;221.00;27.67;;;-1.40;99.90;;;;;;5055169;28;20452;-43
2023/03/01 01:27:25;;;;;;;192.10;25.90;;;-1.50;99.90;;;;;;5056964;28;20090;-35
2023/03/01 01:29:53;;;;;;;261.25;27.17;;;-1.60;99.90;;;;;;5074056;28;20152;-37
2023/03/01 01:32:18;;;;;;;259.98;30.23;;;-1.60;99.90;;;;;;5055825;28;20044;-38
2023/03/01 01:34:44;;;;;;;159.82;24.67;;;-1.60;99.90;;;;;;5060502;28;20056;-35
2023/03/01 01:37:09;;;;;;;142.60;23.75;;;-1.60;99.90;;;;;;5074829;28;20059;-39
2023/03/01 01:39:35;;;;;;;106.85;23.45;;;-1.70;99.90;;;;;;5066286;28;20452;-36
2023/03/01 01:42:01;;;;;;;95.25;19.85;;;-1.60;99.90;;;;;;5054235;28;20159;-35
2023/03/01 01:44:28;;;;;;;90.68;19.45;;;-1.60;99.90;;;;;;5068252;28;20040;-40
2023/03/01 01:47:14;;;;;;;159.35;20.45;;;-1.60;99.90;;;;;;5074175;28;20557;-40
2023/03/01 01:49:53;;;;;;;132.65;17.25;;;-1.60;99.90;;;;;;5073301;28;20040;-40
2023/03/01 01:52:27;;;;;;;128.13;18.70;;;-1.70;99.90;;;;;;5068936;28;20286;-37
2023/03/01 01:55:01;;;;;;;;;;;-1.70;99.90;;;;;;5048997;28;20764;-35
2023/03/01 01:57:41;;;;;;;228.27;22.52;;;-1.70;99.90;;;;;;5056776;28;19927;-39
2023/03/01 02:00:14;;;;;;;197.18;22.88;;;-1.80;99.90;;;;;;5055073;28;20040;-42
2023/03/01 02:02:42;;;;;;;171.55;23.27;;;-1.80;99.90;;;;;;5049217;28;20045;-38
2023/03/01 02:05:49;;;;;;;171.98;23.45;;;-1.80;99.90;;;;;;5027977;28;20040;-43
2023/03/01 02:08:18;;;;;;;93.10;20.00;;;-1.80;99.90;;;;;;5011338;28;20060;-39
2023/03/01 02:10:45;;;;;;;103.65;20.35;;;-1.70;99.90;;;;;;5009747;28;20438;-40
2023/03/01 02:13:11;;;;;;;121.93;22.02;;;-1.80;99.90;;;;;;5009914;28;20128;-37
2023/03/01 02:15:39;;;;;;;139.00;23.20;;;-1.80;99.90;;;;;;5011272;28;20049;-38
2023/03/01 02:18:07;;;;;;;158.20;23.55;;;-1.80;99.90;;;;;;5014276;28;20045;-37
2023/03/01 02:20:52;;;;;;;189.40;27.20;;;-1.80;99.90;;;;;;5013545;28;20045;-48
2023/03/01 02:23:18;;;;;;;99.78;21.58;;;-1.80;99.90;;;;;;5013422;28;20038;-41
2023/03/01 02:26:25;;;;;;;117.13;22.00;;;-1.70;99.90;;;;;;5014631;28;20057;-40
2023/03/01 02:28:51;;;;;;;131.30;23.67;;;-1.80;99.90;;;;;;4975091;28;20064;-35
2023/03/01 02:34:05;;;;;;;142.70;22.27;;;-1.80;99.90;;;;;;4974427;28;20053;-41
2023/03/01 02:36:44;;;;;;;192.43;24.02;;;-1.90;99.90;;;;;;4959508;28;20567;-38
2023/03/01 02:39:16;;;;;;;217.30;24.90;;;-1.90;99.90;;;;;;4975213;28;20407;-42
2023/03/01 02:41:47;;;;;;;242.73;25.52;;;-1.80;99.90;;;;;;4975071;28;20050;-38
2023/03/01 02:44:13;;;;;;;261.48;26.17;;;-1.90;99.90;;;;;;4959067;28;20133;-43
2023/03/01 02:46:50;;;;;;;265.33;26.98;;;-1.90;99.90;;;;;;4975890;28;20437;-35
2023/03/01 02:49:26;;;;;;;203.63;24.13;;;-1.90;99.90;;;;;;4975131;28;20401;-41
2023/03/01 02:52:29;;;;;;;137.27;20.85;;;-1.90;99.90;;;;;;4982617;28;20467;-43
2023/03/01 02:55:13;;;;;;;159.77;22.38;;;-1.90;99.90;;;;;;4962681;28;20127;-42
2023/03/01 02:57:43;;;;;;;147.13;21.52;;;-1.90;99.90;;;;;;4960696;28;20618;-41
2023/03/01 03:00:19;;;;;;;148.73;20.95;;;-2.00;99.90;;;;;;4984552;28;20555;-41
2023/03/01 03:02:49;;;;;;;266.30;26.17;;;-1.90;99.90;;;;;;4978394;28;20097;-45
2023/03/01 03:05:21;;;;;;;212.10;24.77;;;-1.90;99.90;;;;;;4996498;28;20057;-41
2023/03/01 03:07:49;;;;;;;263.50;25.10;;;-2.00;99.90;;;;;;5068538;28;20033;-51
2023/03/01 03:10:21;;;;;;;384.42;29.83;;;-2.00;99.90;;;;;;5052617;28;20093;-41
2023/03/01 03:12:52;;;;;;;257.65;25.92;;;-2.10;99.90;;;;;;5075766;28;20119;-38
2023/03/01 03:15:18;;;;;;;206.02;22.85;;;-2.10;99.90;;;;;;5059391;28;20287;-41
2023/03/01 03:17:44;;;;;;;206.77;25.00;;;-2.10;99.90;;;;;;5056884;28;20155;-41
2023/03/01 03:20:12;;;;;;;209.85;24.77;;;-2.10;99.90;;;;;;5054916;28;20159;-39
2023/03/01 03:22:41;;;;;;;179.63;22.27;;;-2.20;99.90;;;;;;5055948;28;20844;-38
2023/03/01 03:25:10;;;;;;;106.93;18.90;;;-2.20;99.90;;;;;;5055911;28;20041;-40
2023/03/01 03:27:41;;;;;;;74.18;17.85;;;-2.30;99.90;;;;;;5067929;28;20040;-47
2023/03/01 03:30:08;;;;;;;44.97;15.57;;;-2.20;99.90;;;;;;5075511;28;20075;-39
2023/03/01 03:32:36;;;;;;;110.03;18.05;;;-2.20;99.90;;;;;;5063355;28;20048;-45
2023/03/01 03:35:09;;;;;;;101.05;16.52;;;-2.20;99.90;;;;;;5055990;28;20037;-36
2023/03/01 03:40:20;;;;;;;78.25;16.52;;;-2.30;99.90;;;;;;5045243;28;20059;-38
2023/03/01 03:42:46;;;;;;;113.60;17.70;;;-2.30;99.90;;;;;;5056795;28;20049;-41
2023/03/01 03:45:12;;;;;;;120.45;19.85;;;-2.40;99.90;;;;;;5075694;28;20044;-37
2023/03/01 03:47:37;;;;;;;95.57;17.70;;;-2.40;99.90;;;;;;5062164;28;20044;-35
2023/03/01 03:50:03;;;;;;;120.50;19.63;;;-2.40;99.90;;;;;;5068128;28;20040;-44
2023/03/01 03:52:29;;;;;;;66.13;17.30;;;-2.50;99.90;;;;;;5062634;28;20052;-42
2023/03/01 03:54:55;;;;;;;47.08;16.13;;;-2.50;99.90;;;;;;5074897;28;20123;-41
2023/03/01 03:57:21;;;;;;;54.63;16.58;;;-2.60;99.90;;;;;;5058311;28;20466;-36
2023/03/01 03:59:46;;;;;;;90.38;18.33;;;-2.60;99.90;;;;;;5047225;28;20079;-42
2023/03/01 04:02:12;;;;;;;85.50;16.50;;;-2.50;99.90;;;;;;5050540;28;20090;-41
2023/03/01 04:04:39;;;;;;;83.63;16.25;;;-2.60;99.90;;;;;;5053918;28;20076;-43
2023/03/01 04:07:04;;;;;;;81.30;15.68;;;-2.70;99.90;;;;;;5068024;28;20227;-42
2023/03/01 04:09:30;;;;;;;88.15;16.35;;;-2.60;99.90;;;;;;5054429;28;20097;-40
2023/03/01 04:11:56;;;;;;;77.20;17.05;;;-2.60;99.90;;;;;;5070653;28;20040;-39
2023/03/01 04:14:21;;;;;;;119.13;17.83;;;-2.70;99.90;;;;;;5065757;28;20040;-36
2023/03/01 04:16:47;;;;;;;140.32;18.38;;;-2.60;99.90;;;;;;5068618;28;20047;-43
2023/03/01 04:19:15;;;;;;;133.52;18.10;;;-2.70;99.90;;;;;;5054928;28;20080;-39
2023/03/01 04:21:40;;;;;;;153.88;17.75;;;-2.70;99.90;;;;;;5056477;28;20040;-34
2023/03/01 04:24:06;;;;;;;210.38;21.98;;;-2.70;99.90;;;;;;5066058;28;20037;-36
2023/03/01 04:26:32;;;;;;;229.32;22.13;;;-2.70;99.90;;;;;;5070900;28;20059;-41
2023/03/01 04:28:58;;;;;;;224.70;21.15;;;-2.80;99.90;;;;;;5075718;28;20044;-41
2023/03/01 04:31:23;;;;;;;198.65;20.33;;;-2.80;99.90;;;;;;5061030;28;20066;-40
2023/03/01 04:33:52;;;;;;;129.15;17.65;;;-2.80;99.90;;;;;;5074653;28;20044;-45
2023/03/01 04:36:19;;;;;;;132.90;16.60;;;-2.80;99.90;;;;;;5061023;28;20216;-41
2023/03/01 04:38:48;;;;;;;110.47;16.70;;;-2.90;99.90;;;;;;5072500;28;20048;-35
2023/03/01 04:41:17;;;;;;;88.03;15.45;;;-3.00;99.90;;;;;;5038848;28;20052;-37
2023/03/01 04:43:43;;;;;;;80.72;15.23;;;-3.00;99.90;;;;;;5036890;28;20060;-46
2023/03/01 04:46:12;;;;;;;54.20;14.20;;;-3.00;99.90;;;;;;5070381;28;20043;-41
2023/03/01 04:48:40;;;;;;;110.85;15.15;;;-2.90;99.90;;;;;;5074639;28;20063;-42
2023/03/01 04:51:06;;;;;;;129.93;17.70;;;-3.00;99.90;;;;;;5073498;28;20044;-35
2023/03/01 04:53:32;;;;;;;120.97;17.30;;;-2.90;99.90;;;;;;5058768;28;20377;-40
2023/03/01 04:55:58;;;;;;;104.65;17.08;;;-3.00;99.90;;;;;;5055065;28;20509;-41
2023/03/01 04:58:26;;;;;;;71.85;15.80;;;-3.00;99.90;;;;;;5055259;28;20083;-38
2023/03/01 05:00:52;;;;;;;95.63;15.48;;;-3.00;99.90;;;;;;5054003;28;20119;-40
2023/03/01 05:03:19;;;;;;;121.75;17.77;;;-3.00;99.90;;;;;;5073811;28;20478;-41
2023/03/01 05:05:47;;;;;;;92.10;14.95;;;-3.10;99.90;;;;;;5058355;28;20044;-38
2023/03/01 05:08:17;;;;;;;90.55;15.18;;;-3.00;99.90;;;;;;5055845;28;20070;-39
2023/03/01 05:10:46;;;;;;;106.20;16.02;;;-3.20;99.90;;;;;;5041761;28;20131;-43
2023/03/01 05:13:13;;;;;;;83.35;16.48;;;-3.20;99.90;;;;;;5041719;28;20041;-34
2023/03/01 05:15:39;;;;;;;88.10;15.50;;;-3.20;99.90;;;;;;5045463;28;20067;-38
2023/03/01 05:18:11;;;;;;;52.55;14.73;;;-3.20;99.90;;;;;;5074174;28;20498;-37
2023/03/01 05:20:37;;;;;;;70.38;15.15;;;-3.20;99.90;;;;;;5066803;28;20044;-42
2023/03/01 05:23:05;;;;;;;53.38;14.07;;;-3.20;99.90;;;;;;5054024;28;20482;-43
2023/03/01 05:25:34;;;;;;;43.60;13.48;;;-3.20;99.90;;;;;;5070029;28;20055;-34
2023/03/01 05:28:04;;;;;;;43.08;13.30;;;-3.30;99.90;;;;;;5070225;28;20582;-41
2023/03/01 05:30:33;;;;;;;140.13;16.10;;;-3.30;99.90;;;;;;5054517;28;20048;-45
2023/03/01 05:32:59;;;;;;;85.53;16.27;;;-3.30;99.90;;;;;;5055918;28;20447;-41
2023/03/01 05:35:25;;;;;;;96.32;15.60;;;-3.30;99.90;;;;;;5075056;28;20101;-37
2023/03/01 05:37:51;;;;;;;103.78;15.73;;;-3.30;99.90;;;;;;5070298;28;20556;-36
2023/03/01 05:40:20;;;;;;;123.93;17.92;;;-3.30;99.90;;;;;;5053806;28;20040;-38
2023/03/01 05:42:48;;;;;;;73.68;16.15;;;-3.30;99.90;;;;;;5053855;28;20043;-34
2023/03/01 05:45:14;;;;;;;103.47;16.38;;;-3.30;99.90;;;;;;5062238;28;20116;-42
2023/03/01 05:47:44;;;;;;;129.10;16.70;;;-3.30;99.90;;;;;;5059096;28;20049;-35
2023/03/01 05:50:34;;;;;;;39.40;13.52;;;-3.30;99.90;;;;;;5053047;28;20398;-35
2023/03/01 05:53:02;;;;;;;60.17;12.80;;;-3.30;99.90;;;;;;5053488;28;20048;-41
2023/03/01 05:55:30;;;;;;;45.17;13.75;;;-3.40;99.90;;;;;;5066727;28;20059;-43
2023/03/01 05:57:58;;;;;;;66.78;14.68;;;-3.40;99.90;;;;;;5048501;28;20056;-36
2023/03/01 06:00:24;;;;;;;58.35;14.40;;;-3.50;99.90;;;;;;5046289;28;20056;-36
2023/03/01 06:02:51;;;;;;;46.33;14.02;;;-3.50;99.90;;;;;;5053618;28;20048;-45
2023/03/01 06:05:17;;;;;;;50.60;14.65;;;-3.50;99.90;;;;;;5054369;28;20037;-43
2023/03/01 06:07:43;;;;;;;41.50;20.08;;;-3.50;99.90;;;;;;5034448;28;20045;-39
2023/03/01 06:10:10;;;;;;;41.55;20.10;;;-3.60;99.90;;;;;;5033361;28;20098;-37
2023/03/01 06:12:37;;;;;;;114.03;32.80;;;-3.50;99.90;;;;;;5052421;28;20049;-38
2023/03/01 06:15:05;;;;;;;75.80;30.02;;;-3.60;99.90;;;;;;5052523;28;20469;-45
2023/03/01 06:17:37;;;;;;;89.78;36.42;;;-3.60;99.90;;;;;;5040590;28;20142;-37
2023/03/01 06:20:04;;;;;;;59.67;29.38;;;-3.60;99.90;;;;;;5039621;28;20504;-39
2023/03/01 06:22:30;;;;;;;19.98;14.65;;;-3.50;99.90;;;;;;5060957;28;20513;-43
2023/03/01 06:24:55;;;;;;;18.90;14.20;;;-3.50;99.90;;;;;;5059913;28;20167;-37
2023/03/01 06:27:21;;;;;;;22.67;17.20;;;-3.60;99.90;;;;;;5064808;28;20402;-42
2023/03/01 06:29:47;;;;;;;24.40;17.83;;;-3.60;99.90;;;;;;5052918;28;20040;-35
2023/03/01 06:32:12;;;;;;;27.80;21.75;;;-3.60;99.90;;;;;;5054163;28;20047;-46
2023/03/01 06:34:38;;;;;;;24.88;18.73;;;-3.60;99.90;;;;;;5068018;28;20036;-41
2023/03/01 06:37:05;;;;;;;20.05;14.88;;;-3.60;99.90;;;;;;5063513;28;20448;-45
2023/03/01 06:39:31;;;;;;;23.23;15.98;;;-3.50;99.90;;;;;;5064167;28;20483;-43
2023/03/01 06:41:57;;;;;;;19.40;14.48;;;-3.60;99.90;;;;;;5035173;28;20569;-38
2023/03/01 06:44:22;;;;;;;18.50;13.27;;;-3.50;99.90;;;;;;5034557;28;20262;-35
2023/03/01 06:46:48;;;;;;;18.65;14.32;;;-3.50;99.90;;;;;;5053492;28;20129;-41
2023/03/01 06:49:15;;;;;;;18.33;12.75;;;-3.40;99.90;;;;;;5052488;28;20496;-41
2023/03/01 06:51:41;;;;;;;13.82;11.85;;;-3.40;99.90;;;;;;5052396;28;20051;-36
2023/03/01 06:54:07;;;;;;;13.20;11.10;;;-3.20;99.90;;;;;;5072070;28;20040;-39
2023/03/01 06:56:33;;;;;;;12.57;10.73;;;-3.20;99.90;;;;;;5065079;28;20156;-46
2023/03/01 06:58:59;;;;;;;13.73;11.65;;;-3.10;99.90;;;;;;5066982;28;20215;-42
2023/03/01 07:01:24;;;;;;;21.35;11.88;;;-3.00;99.90;;;;;;5036284;28;20056;-42
2023/03/01 07:03:50;;;;;;;13.65;12.20;;;-2.90;99.90;;;;;;5042648;28;20079;-40
2023/03/01 07:06:17;;;;;;;12.77;11.05;;;-2.70;99.90;;;;;;5047488;28;20133;-39
2023/03/01 07:08:43;;;;;;;12.48;10.77;;;-2.40;99.90;;;;;;5059606;28;20186;-43
2023/03/01 07:11:09;;;;;;;11.48;10.15;;;-2.30;99.90;;;;;;5044539;28;20131;-40
2023/03/01 07:13:34;;;;;;;12.43;10.65;;;-2.20;99.90;;;;;;5069263;28;20036;-43
2023/03/01 07:16:00;;;;;;;11.85;10.27;;;-2.10;99.90;;;;;;5065713;28;20079;-39
2023/03/01 07:18:26;;;;;;;11.75;10.43;;;-2.10;99.90;;;;;;5061457;28;20452;-39
2023/03/01 07:20:51;;;;;;;12.77;11.10;;;-2.20;99.90;;;;;;5055916;28;20122;-40
2023/03/01 07:23:17;;;;;;;12.48;10.43;;;-2.20;99.90;;;;;;5055517;28;20533;-40
2023/03/01 07:25:43;;;;;;;11.48;10.27;;;-2.20;99.90;;;;;;5055695;28;20076;-40
2023/03/01 07:28:08;;;;;;;14.15;11.23;;;-2.20;99.90;;;;;;5056690;28;20070;-36
2023/03/01 07:30:34;;;;;;;14.05;11.70;;;-2.10;99.90;;;;;;5071098;28;20052;-40
2023/03/01 07:33:00;;;;;;;13.23;11.38;;;-2.10;99.90;;;;;;5056142;28;20055;-42
2023/03/01 07:35:27;;;;;;;15.52;12.23;;;-2.10;99.90;;;;;;5056196;28;20044;-37
2023/03/01 07:37:53;;;;;;;13.98;12.25;;;-2.00;99.90;;;;;;5067806;28;20123;-36
2023/03/01 07:40:19;;;;;;;14.27;12.68;;;-1.90;99.90;;;;;;5055500;28;20048;-37
2023/03/01 07:42:45;;;;;;;15.15;13.00;;;-1.80;99.90;;;;;;5054790;28;20060;-37
2023/03/01 07:45:26;;;;;;;15.52;13.50;;;-1.80;99.90;;;;;;5055554;28;20036;-40
2023/03/01 07:47:53;;;;;;;16.17;13.25;;;-1.50;99.90;;;;;;5055618;28;20242;-43
2023/03/01 07:50:19;;;;;;;16.70;13.70;;;-1.40;99.90;;;;;;5065694;28;20132;-41
2023/03/01 07:52:46;;;;;;;15.52;13.88;;;-1.20;99.90;;;;;;5046876;28;20516;-42
2023/03/01 07:55:12;;;;;;;18.33;13.90;;;-1.00;99.90;;;;;;5048611;28;20099;-40
2023/03/01 07:57:38;;;;;;;17.58;14.05;;;-0.70;99.90;;;;;;5054153;28;20431;-40
2023/03/01 08:00:05;;;;;;;16.17;14.48;;;-0.40;99.90;;;;;;5053796;28;20045;-39
2023/03/01 08:02:31;;;;;;;17.02;14.68;;;-0.20;99.90;;;;;;5053952;28;20072;-38
2023/03/01 08:04:57;;;;;;;19.65;15.63;;;0.10;99.90;;;;;;5056819;28;20036;-42
2023/03/01 08:07:22;;;;;;;18.70;15.60;;;0.40;99.90;;;;;;5069260;28;20040;-35
2023/03/01 08:09:48;;;;;;;17.10;15.25;;;0.60;99.90;;;;;;5058785;28;20101;-39
2023/03/01 08:12:16;;;;;;;17.92;15.20;;;0.90;99.90;;;;;;5054756;28;20295;-35
2023/03/01 08:14:42;;;;;;;20.27;15.27;;;1.10;99.90;;;;;;5030412;28;20523;-40
2023/03/01 08:17:07;;;;;;;18.40;16.40;;;1.30;99.90;;;;;;5055543;28;20041;-37
2023/03/01 08:19:34;;;;;;;18.77;16.45;;;1.50;99.90;;;;;;5037134;28;20738;-48
2023/03/01 08:22:02;;;;;;;20.55;16.67;;;1.60;99.90;;;;;;5040266;28;20415;-41
2023/03/01 08:24:28;;;;;;;19.85;17.20;;;1.70;99.90;;;;;;5023360;28;20045;-40
2023/03/01 08:26:54;;;;;;;20.15;17.88;;;1.80;99.90;;;;;;5020410;28;20094;-40
2023/03/01 08:29:20;;;;;;;19.13;16.83;;;1.90;99.90;;;;;;5018700;28;20086;-41
2023/03/01 08:31:46;;;;;;;22.00;18.15;;;2.10;99.90;;;;;;5043915;28;20040;-38
2023/03/01 08:34:16;;;;;;;22.27;19.45;;;2.20;99.90;;;;;;5016515;28;20129;-43
2023/03/01 08:36:44;;;;;;;22.77;18.42;;;2.20;99.90;;;;;;5067413;28;20052;-38
2023/03/01 08:39:12;;;;;;;23.65;18.33;;;2.20;99.90;;;;;;5065094;28;20052;-38
2023/03/01 08:41:39;;;;;;;26.15;21.30;;;2.30;99.90;;;;;;5054225;28;20103;-40
2023/03/01 08:44:06;;;;;;;25.77;20.73;;;2.40;99.90;;;;;;5054595;28;20048;-45
2023/03/01 08:46:37;;;;;;;27.77;22.75;;;2.40;99.90;;;;;;5036845;28;20048;-37
2023/03/01 08:49:21;;;;;;;31.85;24.35;;;2.60;99.90;;;;;;5053763;28;20037;-47
2023/03/01 08:51:47;;;;;;;27.17;22.25;;;2.60;99.90;;;;;;5046175;28;20716;-40
2023/03/01 08:54:16;;;;;;;32.05;24.65;;;2.70;99.90;;;;;;5056017;28;20545;-40
2023/03/01 08:56:42;;;;;;;31.92;24.35;;;2.60;99.90;;;;;;5050718;28;20048;-45
2023/03/01 08:59:08;;;;;;;29.67;24.10;;;2.70;99.90;;;;;;5053156;28;20044;-36
2023/03/01 09:01:34;;;;;;;33.83;25.75;;;2.70;99.90;;;;;;5052853;28;20098;-44
2023/03/01 09:04:00;;;;;;;30.80;24.67;;;2.80;99.90;;;;;;5040191;28;20076;-42
2023/03/01 09:06:25;;;;;;;31.30;25.05;;;2.80;99.90;;;;;;5052822;28;20053;-38
2023/03/01 09:08:51;;;;;;;36.72;27.35;;;2.90;99.90;;;;;;5055128;28;20075;-35
2023/03/01 09:11:21;;;;;;;35.80;27.95;;;3.00;99.90;;;;;;5051206;28;20068;-39
2023/03/01 09:13:47;;;;;;;36.05;28.88;;;3.10;99.90;;;;;;5035911;28;20089;-36
2023/03/01 09:16:16;;;;;;;35.10;29.33;;;3.20;99.90;;;;;;5053753;28;20130;-45
2023/03/01 09:22:15;;;;;;;34.55;26.75;;;3.40;99.90;;;;;;5072678;28;20130;-42
2023/03/01 09:24:40;;;;;;;36.40;25.67;;;3.60;99.90;;;;;;5060771;28;20367;-35
2023/03/01 09:27:08;;;;;;;31.75;26.27;;;3.70;99.90;;;;;;5052070;28;20047;-38
2023/03/01 09:29:37;;;;;;;33.55;25.92;;;3.80;99.90;;;;;;5052268;28;20052;-47
2023/03/01 09:32:03;;;;;;;33.30;26.00;;;3.90;99.90;;;;;;5051060;28;20056;-40
2023/03/01 09:34:29;;;;;;;33.25;25.67;;;4.00;99.90;;;;;;5053077;28;20037;-44
2023/03/01 09:36:54;;;;;;;35.25;25.65;;;4.10;99.90;;;;;;5035465;28;20056;-43
2023/03/01 09:39:20;;;;;;;34.78;26.40;;;4.20;99.90;;;;;;5034541;28;20093;-40
2023/03/01 09:42:03;;;;;;;35.38;24.73;;;4.40;99.90;;;;;;5052625;28;20040;-35
2023/03/01 09:44:40;;;;;;;33.92;26.83;;;4.50;99.90;;;;;;5056337;28;20262;-46
2023/03/01 09:47:26;;;;;;;30.77;24.52;;;4.60;99.90;;;;;;5055062;28;20047;-39
2023/03/01 09:50:11;;;;;;;35.85;26.27;;;4.60;99.90;;;;;;5054988;28;20044;-38
2023/03/01 09:52:40;;;;;;;34.13;26.05;;;4.60;99.90;;;;;;5050110;28;20364;-40
2023/03/01 09:55:13;;;;;;;30.08;26.05;;;4.70;99.90;;;;;;5043722;28;20052;-40
2023/03/01 09:57:45;;;;;;;;;;;4.90;99.90;;;;;;5061815;28;20479;-37
2023/03/01 10:00:35;;;;;;;30.60;23.00;;;4.90;99.90;;;;;;5049714;28;20492;-42
2023/03/01 10:03:13;;;;;;;28.23;21.75;;;5.10;99.90;;;;;;5055446;28;20040;-41
2023/03/01 10:05:52;;;;;;;27.85;21.83;;;5.10;99.90;;;;;;5057839;28;20533;-43
2023/03/01 10:08:36;;;;;;;26.08;21.45;;;5.20;99.90;;;;;;5053640;28;20333;-38
2023/03/01 10:11:02;;;;;;;;;;;5.30;99.90;;;;;;5048119;28;20053;-39
2023/03/01 10:13:42;;;;;;;27.13;22.73;;;5.40;99.90;;;;;;5057339;28;20441;-46
2023/03/01 10:16:17;;;;;;;25.95;20.20;;;5.50;99.90;;;;;;5054774;28;20044;-46
2023/03/01 10:18:47;;;;;;;21.17;17.45;;;5.60;99.90;;;;;;5063175;28;20385;-38
2023/03/01 10:21:18;;;;;;;23.48;18.75;;;5.70;99.90;;;;;;5062147;28;20028;-37
2023/03/01 10:23:45;;;;;;;24.10;19.95;;;5.70;99.90;;;;;;5057351;28;20476;-40
2023/03/01 10:26:17;;;;;;;26.40;20.60;;;5.90;99.90;;;;;;5058394;28;20040;-39
2023/03/01 10:29:04;;;;;;;21.35;18.85;;;5.90;99.90;;;;;;5044505;28;20437;-38
2023/03/01 10:31:45;;;;;;;21.30;18.10;;;6.00;99.90;;;;;;5065288;28;20048;-46
2023/03/01 10:34:18;;;;;;;19.50;16.70;;;6.00;99.90;;;;;;5060381;28;20055;-38
2023/03/01 10:36:47;;;;;;;18.80;16.40;;;6.20;99.90;;;;;;5060986;28;20315;-40
2023/03/01 10:39:19;;;;;;;18.48;14.70;;;6.20;99.90;;;;;;5059983;28;20435;-36
2023/03/01 10:41:55;;;;;;;18.48;15.52;;;6.30;99.90;;;;;;5036784;28;20044;-50
2023/03/01 10:44:39;;;;;;;18.08;14.85;;;6.40;99.90;;;;;;5055884;28;20423;-38
2023/03/01 10:47:15;;;;;;;19.13;14.95;;;6.40;99.90;;;;;;5053335;28;20048;-45
2023/03/01 10:49:58;;;;;;;17.02;15.10;;;6.50;99.90;;;;;;5050983;28;20216;-38
2023/03/01 10:52:36;;;;;;;18.20;14.90;;;6.50;99.90;;;;;;5055062;28;20557;-42
2023/03/01 10:55:16;;;;;;;18.65;14.48;;;6.50;99.90;;;;;;5047527;28;20045;-41
2023/03/01 10:57:42;;;;;;;16.13;14.02;;;6.60;99.90;;;;;;5052497;28;20102;-37
2023/03/01 11:00:20;;;;;;;18.75;14.65;;;6.50;99.90;;;;;;5053004;28;20490;-43
2023/03/01 11:03:11;;;;;;;15.63;13.73;;;6.60;99.90;;;;;;5055799;28;20375;-44
2023/03/01 11:05:50;;;;;;;16.52;13.90;;;6.60;99.90;;;;;;4989075;28;20061;-42
2023/03/01 11:08:38;;;;;;;16.67;12.77;;;6.60;99.90;;;;;;4984290;28;20053;-41
2023/03/01 11:11:16;;;;;;;31.05;25.02;;;6.60;99.90;;;;;;4985484;28;20045;-50
2023/03/01 11:14:40;;;;;;;15.23;13.10;;;6.60;99.90;;;;;;4988127;28;20109;-39
2023/03/01 11:17:31;;;;;;;16.85;15.13;;;6.60;99.90;;;;;;4935851;28;20059;-38
2023/03/01 11:20:00;;;;;;;14.45;12.55;;;6.60;99.90;;;;;;4935380;29;20067;-42
2023/03/01 11:22:26;;;;;;;16.55;14.23;;;6.60;99.90;;;;;;4935677;29;20059;-41
2023/03/01 11:24:55;;;;;;;15.95;13.88;;;6.60;99.90;;;;;;4952459;28;20059;-40
2023/03/01 11:27:47;;;;;;;16.05;13.70;;;6.70;99.90;;;;;;4934911;28;20067;-38
2023/03/01 11:30:28;;;;;;;16.50;14.13;;;6.70;99.90;;;;;;4925939;28;20145;-35
2023/03/01 11:33:22;;;;;;;14.95;13.00;;;6.80;99.90;;;;;;4934237;28;20547;-46
2023/03/01 11:36:03;;;;;;;16.25;13.60;;;6.90;99.90;;;;;;4916097;29;20086;-46
2023/03/01 11:38:33;;;;;;;18.35;13.38;;;6.90;99.90;;;;;;4915093;29;20851;-42
2023/03/01 11:41:05;;;;;;;17.05;13.23;;;6.90;99.90;;;;;;4915178;29;20253;-45
2023/03/01 11:44:01;;;;;;;15.15;12.80;;;6.90;99.90;;;;;;4931223;29;20429;-37
2023/03/01 11:46:35;;;;;;;13.35;11.93;;;6.90;99.90;;;;;;4935548;28;20082;-43
2023/03/01 11:49:04;;;;;;;15.00;13.02;;;6.90;99.90;;;;;;4931413;28;20043;-35
2023/03/01 11:51:47;;;;;;;17.25;12.88;;;7.00;99.90;;;;;;4950436;28;20051;-50
2023/03/01 11:54:21;;;;;;;15.13;12.20;;;7.00;99.90;;;;;;4969142;28;20081;-48
2023/03/01 11:57:09;;;;;;;13.10;11.65;;;7.00;99.90;;;;;;4982391;28;20137;-40
2023/03/01 12:00:12;;;;;;;15.52;12.32;;;7.10;99.90;;;;;;4912135;29;20063;-39
2023/03/01 12:02:38;;;;;;;15.30;12.23;;;7.10;99.90;;;;;;4911167;28;20040;-44
2023/03/01 12:05:40;;;;;;;14.15;12.10;;;7.10;99.90;;;;;;4895386;29;20083;-45
2023/03/01 12:08:21;;;;;;;16.85;12.68;;;7.00;99.90;;;;;;4916680;29;20044;-47
2023/03/01 12:11:02;;;;;;;16.75;12.90;;;7.00;99.90;;;;;;4907066;29;20118;-38
2023/03/01 12:13:55;;;;;;;14.30;12.27;;;7.00;99.90;;;;;;4938279;28;20054;-42
2023/03/01 12:17:00;;;;;;;16.77;12.43;;;7.00;99.90;;;;;;4962291;28;20448;-37
2023/03/01 12:19:28;;;;;;;17.17;11.93;;;7.00;99.90;;;;;;4964443;28;20123;-39
2023/03/01 12:22:16;;;;;;;15.10;13.07;;;7.00;99.90;;;;;;4951344;28;20141;-41
2023/03/01 12:25:01;;;;;;;16.38;13.07;;;7.00;99.90;;;;;;4956134;28;20578;-41
2023/03/01 12:27:52;;;;;;;15.85;13.07;;;7.00;99.90;;;;;;4948813;28;20050;-37
2023/03/01 12:30:46;;;;;;;14.98;13.07;;;7.10;99.90;;;;;;4951147;28;20085;-43
2023/03/01 12:33:19;;;;;;;;;;;7.10;99.90;;;;;;4948980;28;20057;-43
2023/03/01 12:36:13;;;;;;;17.90;14.27;;;7.10;99.90;;;;;;4943389;28;19926;-43
2023/03/01 12:38:50;;;;;;;16.40;13.77;;;7.10;99.90;;;;;;5051787;28;20164;-45
2023/03/01 12:42:00;;;;;;;15.73;13.80;;;7.10;99.90;;;;;;5057315;28;20411;-37
2023/03/01 12:44:44;;;;;;;15.77;13.88;;;7.20;99.90;;;;;;5045571;28;20048;-36
2023/03/01 12:47:12;;;;;;;17.52;14.85;;;7.20;99.90;;;;;;5043873;28;20787;-45
2023/03/01 12:49:44;;;;;;;18.27;15.15;;;7.20;99.90;;;;;;5070848;28;20047;-46
2023/03/01 12:52:20;;;;;;;19.55;14.07;;;7.20;99.90;;;;;;5070259;28;20052;-46
2023/03/01 12:54:47;;;;;;;16.63;14.25;;;7.20;99.90;;;;;;5045181;28;20295;-42
2023/03/01 12:57:36;;;;;;;17.52;14.73;;;7.20;99.90;;;;;;5064475;28;20053;-38
2023/03/01 13:00:33;;;;;;;17.77;13.65;;;7.20;99.90;;;;;;5042729;28;20083;-36